Aviation Digital Data Service (ADDS)

Output produced by METARs form (0307 UTC 16 August 2018)
found at http://www.aviationweather.gov/adds/metars/
 
DRRN 160200Z 23006KT CAVOK 28/22 Q1014 NOSIG
TAF DRRN 152300Z 1600/1706 20006KT 9999 FEW020 
     PROB30 
     TEMPO 1602/1606 06025G45KT 1000 SQ BLDU TSRA BKN015 SCT020CB 
     PROB40 
     TEMPO 1616/1622 4000 TS SHRA BKN015 FEW020CB
       
TAF DRZA 152300Z 1600/1624 30008KT 9999 FEW040 
     PROB40 
     TEMPO 1615/1621 VRB25G35KT 0800 SQ BLDU TSRA SCT030 FEW040CB
       
TAF DRZR 152300Z 1600/1624 26006KT 9999 FEW030 
     PROB30 
     TEMPO 1614/1620 TS BKN030 FEW033CB